Terminal Aerodrome Forecast
Issued by NWS

Home | Current Version | Previous Version | Text Only | Print | Product List | Glossary On
Versions: 1 2 3 4 5 6 7 8 9 10 11 12 13 14 15
172
FTUS42 KTBW 292320
TAFLAL
TAF
KLAL 292320Z 3000/3024 VRB03KT P6SM VCSH FEW030 SCT100 BKN250
     FM300300 00000KT P6SM SCT100 BKN250
     FM301500 VRB03KT P6SM VCTS SCT025CB SCT070 BKN250
     FM301800 25006KT P6SM VCTS BKN035CB
      AMD NOT SKED 3002/3011=

USA.gov is the U.S. government's official web portal to all federal, state and local government web resources and services.